Weather at Smith Field

Public forecast

Using degrees Fahrenheit for public forecast. Weather courtesy of forecast.io.

Current aviation weather report (METAR) for Smith Field

Retrieved 2021/04/12 15:56 UTC (39 minutes ago):

KSLG 121556Z AUTO 03010KT 10SM CLR 16/07 A2996 RMK AO2 SLP142 T01610072 TSNO

Closest aviation forecast (TAF) to Smith Field

Closest forecast is Northwest Arkansas Regional Airport, 10.4 nm (19.2 km) ENE. Retrieved 2021/04/12 12:30 UTC (4 hours ago):

TAF KXNA 121128Z 1212/1312 02009G18KT P6SM SCT150 FM122100 02010G19KT P6SM BKN090 FM130200 02012G21KT 6SM -SHRA BKN060 TEMPO 1304/1308 3SM -TSRA BKN050CB